sensor_id;sensor_type;location;lat;lon;timestamp;P1;durP1;ratioP1;P2;durP2;ratioP2
8187;SDS011;4135;49.184;9.722;2023-04-24T00:00:38;1.15;;;0.30;;
8187;SDS011;4135;49.184;9.722;2023-04-24T00:03:09;2.55;;;0.55;;
8187;SDS011;4135;49.184;9.722;2023-04-24T00:05:39;2.60;;;0.45;;
8187;SDS011;4135;49.184;9.722;2023-04-24T00:08:10;3.60;;;0.98;;
8187;SDS011;4135;49.184;9.722;2023-04-24T00:10:39;3.42;;;0.47;;
8187;SDS011;4135;49.184;9.722;2023-04-24T00:13:09;1.48;;;0.50;;
8187;SDS011;4135;49.184;9.722;2023-04-24T00:15:40;3.42;;;0.68;;
8187;SDS011;4135;49.184;9.722;2023-04-24T00:18:09;1.65;;;0.40;;
8187;SDS011;4135;49.184;9.722;2023-04-24T00:20:39;1.02;;;0.43;;
8187;SDS011;4135;49.184;9.722;2023-04-24T00:23:08;2.83;;;0.60;;
8187;SDS011;4135;49.184;9.722;2023-04-24T00:25:38;1.27;;;0.50;;
8187;SDS011;4135;49.184;9.722;2023-04-24T00:28:08;0.75;;;0.30;;
8187;SDS011;4135;49.184;9.722;2023-04-24T00:30:38;6.82;;;0.88;;
8187;SDS011;4135;49.184;9.722;2023-04-24T00:33:08;1.65;;;0.40;;
8187;SDS011;4135;49.184;9.722;2023-04-24T00:35:38;3.55;;;0.60;;
8187;SDS011;4135;49.184;9.722;2023-04-24T00:38:07;1.90;;;0.43;;
8187;SDS011;4135;49.184;9.722;2023-04-24T00:40:37;0.63;;;0.40;;
8187;SDS011;4135;49.184;9.722;2023-04-24T00:43:07;5.93;;;0.75;;
8187;SDS011;4135;49.184;9.722;2023-04-24T00:45:36;3.20;;;0.45;;
8187;SDS011;4135;49.184;9.722;2023-04-24T00:48:06;2.38;;;0.45;;
8187;SDS011;4135;49.184;9.722;2023-04-24T00:50:36;1.55;;;0.40;;
8187;SDS011;4135;49.184;9.722;2023-04-24T00:53:06;3.92;;;0.35;;
8187;SDS011;4135;49.184;9.722;2023-04-24T00:55:36;3.90;;;0.30;;
8187;SDS011;4135;49.184;9.722;2023-04-24T00:58:06;0.90;;;0.40;;
8187;SDS011;4135;49.184;9.722;2023-04-24T01:00:36;1.70;;;0.40;;
8187;SDS011;4135;49.184;9.722;2023-04-24T01:03:05;1.35;;;0.30;;
8187;SDS011;4135;49.184;9.722;2023-04-24T01:05:36;5.45;;;0.65;;
8187;SDS011;4135;49.184;9.722;2023-04-24T01:08:05;2.60;;;0.50;;
8187;SDS011;4135;49.184;9.722;2023-04-24T01:10:35;2.05;;;0.47;;
8187;SDS011;4135;49.184;9.722;2023-04-24T01:13:09;1.73;;;0.50;;
8187;SDS011;4135;49.184;9.722;2023-04-24T01:15:39;2.20;;;0.30;;
8187;SDS011;4135;49.184;9.722;2023-04-24T01:18:09;1.90;;;0.52;;
8187;SDS011;4135;49.184;9.722;2023-04-24T01:20:42;3.83;;;0.70;;
8187;SDS011;4135;49.184;9.722;2023-04-24T01:23:14;0.98;;;0.50;;
8187;SDS011;4135;49.184;9.722;2023-04-24T01:25:44;0.65;;;0.40;;
8187;SDS011;4135;49.184;9.722;2023-04-24T01:28:14;2.50;;;0.50;;
8187;SDS011;4135;49.184;9.722;2023-04-24T01:30:44;1.50;;;0.40;;
8187;SDS011;4135;49.184;9.722;2023-04-24T01:33:14;2.20;;;0.38;;
8187;SDS011;4135;49.184;9.722;2023-04-24T01:35:44;2.05;;;0.52;;
8187;SDS011;4135;49.184;9.722;2023-04-24T01:38:14;0.70;;;0.20;;
8187;SDS011;4135;49.184;9.722;2023-04-24T01:40:43;1.08;;;0.32;;
8187;SDS011;4135;49.184;9.722;2023-04-24T01:43:13;1.60;;;0.25;;
8187;SDS011;4135;49.184;9.722;2023-04-24T01:45:43;1.40;;;0.20;;
8187;SDS011;4135;49.184;9.722;2023-04-24T01:48:13;1.50;;;0.45;;
8187;SDS011;4135;49.184;9.722;2023-04-24T01:50:43;2.63;;;0.40;;
8187;SDS011;4135;49.184;9.722;2023-04-24T01:53:12;1.65;;;0.40;;
8187;SDS011;4135;49.184;9.722;2023-04-24T01:55:42;0.32;;;0.10;;
8187;SDS011;4135;49.184;9.722;2023-04-24T01:58:11;0.28;;;0.20;;
8187;SDS011;4135;49.184;9.722;2023-04-24T02:00:41;0.88;;;0.47;;
8187;SDS011;4135;49.184;9.722;2023-04-24T02:03:10;1.10;;;0.50;;
8187;SDS011;4135;49.184;9.722;2023-04-24T02:05:40;0.68;;;0.22;;
8187;SDS011;4135;49.184;9.722;2023-04-24T02:08:13;0.73;;;0.10;;
8187;SDS011;4135;49.184;9.722;2023-04-24T02:10:42;4.25;;;0.55;;
8187;SDS011;4135;49.184;9.722;2023-04-24T02:13:12;2.45;;;0.40;;
8187;SDS011;4135;49.184;9.722;2023-04-24T02:15:41;4.38;;;0.75;;
8187;SDS011;4135;49.184;9.722;2023-04-24T02:18:11;1.15;;;0.40;;
8187;SDS011;4135;49.184;9.722;2023-04-24T02:20:41;1.20;;;0.50;;
8187;SDS011;4135;49.184;9.722;2023-04-24T02:23:11;1.80;;;0.63;;
8187;SDS011;4135;49.184;9.722;2023-04-24T02:25:42;2.33;;;0.30;;
8187;SDS011;4135;49.184;9.722;2023-04-24T02:28:11;1.25;;;0.52;;
8187;SDS011;4135;49.184;9.722;2023-04-24T02:30:41;1.92;;;0.30;;
8187;SDS011;4135;49.184;9.722;2023-04-24T02:33:11;0.73;;;0.40;;
8187;SDS011;4135;49.184;9.722;2023-04-24T02:35:40;2.60;;;0.47;;
8187;SDS011;4135;49.184;9.722;2023-04-24T02:38:10;1.08;;;0.22;;
8187;SDS011;4135;49.184;9.722;2023-04-24T02:40:39;1.30;;;0.30;;
8187;SDS011;4135;49.184;9.722;2023-04-24T02:43:09;2.20;;;0.30;;
8187;SDS011;4135;49.184;9.722;2023-04-24T02:45:38;1.80;;;0.30;;
8187;SDS011;4135;49.184;9.722;2023-04-24T02:48:08;1.33;;;0.30;;
8187;SDS011;4135;49.184;9.722;2023-04-24T02:50:38;1.90;;;0.32;;
8187;SDS011;4135;49.184;9.722;2023-04-24T02:53:07;1.13;;;0.40;;
8187;SDS011;4135;49.184;9.722;2023-04-24T02:55:37;0.90;;;0.25;;
8187;SDS011;4135;49.184;9.722;2023-04-24T02:58:06;1.15;;;0.40;;
8187;SDS011;4135;49.184;9.722;2023-04-24T03:00:36;5.68;;;0.60;;
8187;SDS011;4135;49.184;9.722;2023-04-24T03:03:05;4.47;;;0.40;;
8187;SDS011;4135;49.184;9.722;2023-04-24T03:05:35;0.80;;;0.30;;
8187;SDS011;4135;49.184;9.722;2023-04-24T03:08:05;1.17;;;0.38;;
8187;SDS011;4135;49.184;9.722;2023-04-24T03:10:35;1.58;;;0.28;;
8187;SDS011;4135;49.184;9.722;2023-04-24T03:13:04;1.13;;;0.28;;
8187;SDS011;4135;49.184;9.722;2023-04-24T03:15:34;1.77;;;0.38;;
8187;SDS011;4135;49.184;9.722;2023-04-24T03:18:03;1.40;;;0.20;;
8187;SDS011;4135;49.184;9.722;2023-04-24T03:20:33;1.38;;;0.40;;
8187;SDS011;4135;49.184;9.722;2023-04-24T03:23:03;0.55;;;0.40;;
8187;SDS011;4135;49.184;9.722;2023-04-24T03:25:32;2.38;;;0.30;;
8187;SDS011;4135;49.184;9.722;2023-04-24T03:28:02;1.15;;;0.50;;
8187;SDS011;4135;49.184;9.722;2023-04-24T03:30:31;0.38;;;0.32;;
8187;SDS011;4135;49.184;9.722;2023-04-24T03:33:01;1.13;;;0.28;;
8187;SDS011;4135;49.184;9.722;2023-04-24T03:35:30;1.58;;;0.38;;
8187;SDS011;4135;49.184;9.722;2023-04-24T03:38:00;1.05;;;0.22;;
8187;SDS011;4135;49.184;9.722;2023-04-24T03:40:29;1.67;;;0.25;;
8187;SDS011;4135;49.184;9.722;2023-04-24T03:42:59;1.15;;;0.45;;
8187;SDS011;4135;49.184;9.722;2023-04-24T03:45:29;1.05;;;0.30;;
8187;SDS011;4135;49.184;9.722;2023-04-24T03:47:58;1.60;;;0.30;;
8187;SDS011;4135;49.184;9.722;2023-04-24T03:50:27;2.53;;;0.47;;
8187;SDS011;4135;49.184;9.722;2023-04-24T03:52:58;3.95;;;0.55;;
8187;SDS011;4135;49.184;9.722;2023-04-24T03:55:27;0.75;;;0.25;;
8187;SDS011;4135;49.184;9.722;2023-04-24T03:57:57;1.45;;;0.20;;
8187;SDS011;4135;49.184;9.722;2023-04-24T04:00:26;0.73;;;0.15;;
8187;SDS011;4135;49.184;9.722;2023-04-24T04:02:56;0.95;;;0.30;;
8187;SDS011;4135;49.184;9.722;2023-04-24T04:05:26;4.03;;;0.50;;
8187;SDS011;4135;49.184;9.722;2023-04-24T04:07:55;0.70;;;0.20;;
8187;SDS011;4135;49.184;9.722;2023-04-24T04:10:25;3.30;;;0.50;;
8187;SDS011;4135;49.184;9.722;2023-04-24T04:12:54;1.98;;;0.50;;
8187;SDS011;4135;49.184;9.722;2023-04-24T04:15:24;4.38;;;0.30;;
8187;SDS011;4135;49.184;9.722;2023-04-24T04:17:53;1.38;;;0.22;;
8187;SDS011;4135;49.184;9.722;2023-04-24T04:20:23;1.73;;;0.25;;
8187;SDS011;4135;49.184;9.722;2023-04-24T04:22:53;2.05;;;0.45;;
8187;SDS011;4135;49.184;9.722;2023-04-24T04:25:23;1.17;;;0.30;;
8187;SDS011;4135;49.184;9.722;2023-04-24T04:27:52;0.75;;;0.20;;
8187;SDS011;4135;49.184;9.722;2023-04-24T04:30:22;1.00;;;0.20;;
8187;SDS011;4135;49.184;9.722;2023-04-24T04:32:52;3.83;;;0.57;;
8187;SDS011;4135;49.184;9.722;2023-04-24T04:35:21;1.23;;;0.38;;
8187;SDS011;4135;49.184;9.722;2023-04-24T04:37:51;2.53;;;0.30;;
8187;SDS011;4135;49.184;9.722;2023-04-24T04:40:21;0.93;;;0.40;;
8187;SDS011;4135;49.184;9.722;2023-04-24T04:42:51;1.83;;;0.30;;
8187;SDS011;4135;49.184;9.722;2023-04-24T04:45:21;8.15;;;0.70;;
8187;SDS011;4135;49.184;9.722;2023-04-24T04:47:53;1.10;;;0.40;;
8187;SDS011;4135;49.184;9.722;2023-04-24T04:50:24;5.78;;;0.43;;
8187;SDS011;4135;49.184;9.722;2023-04-24T04:52:53;8.27;;;0.65;;
8187;SDS011;4135;49.184;9.722;2023-04-24T04:55:23;4.88;;;0.88;;
8187;SDS011;4135;49.184;9.722;2023-04-24T04:57:53;5.47;;;0.50;;
8187;SDS011;4135;49.184;9.722;2023-04-24T05:00:22;3.78;;;0.55;;
8187;SDS011;4135;49.184;9.722;2023-04-24T05:02:55;2.45;;;0.43;;
8187;SDS011;4135;49.184;9.722;2023-04-24T05:05:24;1.67;;;0.50;;
8187;SDS011;4135;49.184;9.722;2023-04-24T05:07:54;4.68;;;0.65;;
8187;SDS011;4135;49.184;9.722;2023-04-24T05:10:23;8.25;;;0.50;;
8187;SDS011;4135;49.184;9.722;2023-04-24T05:12:53;4.97;;;0.65;;
8187;SDS011;4135;49.184;9.722;2023-04-24T05:15:22;1.75;;;0.35;;
8187;SDS011;4135;49.184;9.722;2023-04-24T05:17:52;8.18;;;0.68;;
8187;SDS011;4135;49.184;9.722;2023-04-24T05:20:21;2.17;;;0.60;;
8187;SDS011;4135;49.184;9.722;2023-04-24T05:22:51;3.20;;;0.47;;
8187;SDS011;4135;49.184;9.722;2023-04-24T05:25:20;2.25;;;0.30;;
8187;SDS011;4135;49.184;9.722;2023-04-24T05:27:50;1.67;;;0.50;;
8187;SDS011;4135;49.184;9.722;2023-04-24T05:30:19;3.08;;;0.38;;
8187;SDS011;4135;49.184;9.722;2023-04-24T05:32:49;1.52;;;0.60;;
8187;SDS011;4135;49.184;9.722;2023-04-24T05:35:18;1.65;;;0.57;;
8187;SDS011;4135;49.184;9.722;2023-04-24T05:37:48;5.00;;;0.40;;
8187;SDS011;4135;49.184;9.722;2023-04-24T05:40:18;1.30;;;0.30;;
8187;SDS011;4135;49.184;9.722;2023-04-24T05:42:47;1.63;;;0.60;;
8187;SDS011;4135;49.184;9.722;2023-04-24T05:45:17;5.10;;;0.75;;
8187;SDS011;4135;49.184;9.722;2023-04-24T05:47:46;4.53;;;0.80;;
8187;SDS011;4135;49.184;9.722;2023-04-24T05:50:16;4.75;;;0.40;;
8187;SDS011;4135;49.184;9.722;2023-04-24T05:52:45;3.17;;;0.55;;
8187;SDS011;4135;49.184;9.722;2023-04-24T05:55:15;2.80;;;0.40;;
8187;SDS011;4135;49.184;9.722;2023-04-24T05:57:47;4.82;;;0.47;;
8187;SDS011;4135;49.184;9.722;2023-04-24T06:00:16;1.77;;;0.40;;
8187;SDS011;4135;49.184;9.722;2023-04-24T06:02:48;2.25;;;0.32;;
8187;SDS011;4135;49.184;9.722;2023-04-24T06:05:18;2.38;;;0.45;;
8187;SDS011;4135;49.184;9.722;2023-04-24T06:07:47;3.70;;;0.43;;
8187;SDS011;4135;49.184;9.722;2023-04-24T06:10:17;3.25;;;0.32;;
8187;SDS011;4135;49.184;9.722;2023-04-24T06:12:46;1.80;;;0.50;;
8187;SDS011;4135;49.184;9.722;2023-04-24T06:15:16;5.18;;;0.68;;
8187;SDS011;4135;49.184;9.722;2023-04-24T06:17:45;6.38;;;0.60;;
8187;SDS011;4135;49.184;9.722;2023-04-24T06:20:15;2.47;;;0.60;;
8187;SDS011;4135;49.184;9.722;2023-04-24T06:22:44;4.82;;;0.35;;
8187;SDS011;4135;49.184;9.722;2023-04-24T06:25:14;2.38;;;0.38;;
8187;SDS011;4135;49.184;9.722;2023-04-24T06:27:43;2.33;;;0.60;;
8187;SDS011;4135;49.184;9.722;2023-04-24T06:30:13;3.30;;;0.50;;
8187;SDS011;4135;49.184;9.722;2023-04-24T06:32:43;11.95;;;1.17;;
8187;SDS011;4135;49.184;9.722;2023-04-24T06:35:12;4.10;;;0.60;;
8187;SDS011;4135;49.184;9.722;2023-04-24T06:37:42;5.95;;;0.65;;
8187;SDS011;4135;49.184;9.722;2023-04-24T06:40:12;1.88;;;0.55;;
8187;SDS011;4135;49.184;9.722;2023-04-24T06:42:41;3.85;;;0.85;;
8187;SDS011;4135;49.184;9.722;2023-04-24T06:45:11;1.67;;;0.40;;
8187;SDS011;4135;49.184;9.722;2023-04-24T06:47:40;3.47;;;0.70;;
8187;SDS011;4135;49.184;9.722;2023-04-24T06:50:10;5.43;;;0.45;;
8187;SDS011;4135;49.184;9.722;2023-04-24T06:52:40;1.13;;;0.40;;
8187;SDS011;4135;49.184;9.722;2023-04-24T06:55:10;0.90;;;0.20;;
8187;SDS011;4135;49.184;9.722;2023-04-24T06:57:40;2.55;;;0.47;;
8187;SDS011;4135;49.184;9.722;2023-04-24T07:00:09;5.47;;;0.45;;
8187;SDS011;4135;49.184;9.722;2023-04-24T07:02:39;1.55;;;0.47;;
8187;SDS011;4135;49.184;9.722;2023-04-24T07:05:09;4.40;;;0.50;;
8187;SDS011;4135;49.184;9.722;2023-04-24T07:07:39;1.48;;;0.55;;
8187;SDS011;4135;49.184;9.722;2023-04-24T07:10:09;2.63;;;0.43;;
8187;SDS011;4135;49.184;9.722;2023-04-24T07:12:38;1.73;;;0.40;;
8187;SDS011;4135;49.184;9.722;2023-04-24T07:15:08;2.08;;;0.50;;
8187;SDS011;4135;49.184;9.722;2023-04-24T07:17:38;0.70;;;0.30;;
8187;SDS011;4135;49.184;9.722;2023-04-24T07:20:11;2.15;;;0.75;;
8187;SDS011;4135;49.184;9.722;2023-04-24T07:22:43;1.77;;;0.50;;
8187;SDS011;4135;49.184;9.722;2023-04-24T07:25:12;2.78;;;0.30;;
8187;SDS011;4135;49.184;9.722;2023-04-24T07:27:42;3.38;;;0.75;;
8187;SDS011;4135;49.184;9.722;2023-04-24T07:30:12;4.25;;;0.30;;
8187;SDS011;4135;49.184;9.722;2023-04-24T07:32:41;2.47;;;0.47;;
8187;SDS011;4135;49.184;9.722;2023-04-24T07:35:11;1.30;;;0.30;;
8187;SDS011;4135;49.184;9.722;2023-04-24T07:37:40;1.23;;;0.30;;
8187;SDS011;4135;49.184;9.722;2023-04-24T07:40:14;2.65;;;0.73;;
8187;SDS011;4135;49.184;9.722;2023-04-24T07:42:44;4.15;;;0.80;;
8187;SDS011;4135;49.184;9.722;2023-04-24T07:45:14;1.20;;;0.60;;
8187;SDS011;4135;49.184;9.722;2023-04-24T07:47:44;3.78;;;0.55;;
8187;SDS011;4135;49.184;9.722;2023-04-24T07:50:14;0.80;;;0.38;;
8187;SDS011;4135;49.184;9.722;2023-04-24T07:52:44;0.55;;;0.43;;
8187;SDS011;4135;49.184;9.722;2023-04-24T07:55:13;1.13;;;0.20;;
8187;SDS011;4135;49.184;9.722;2023-04-24T07:57:43;0.85;;;0.30;;
8187;SDS011;4135;49.184;9.722;2023-04-24T08:00:13;2.30;;;0.40;;
8187;SDS011;4135;49.184;9.722;2023-04-24T08:02:43;1.20;;;0.38;;
8187;SDS011;4135;49.184;9.722;2023-04-24T08:05:12;2.17;;;0.30;;
8187;SDS011;4135;49.184;9.722;2023-04-24T08:07:42;0.63;;;0.40;;
8187;SDS011;4135;49.184;9.722;2023-04-24T08:10:11;1.05;;;0.40;;
8187;SDS011;4135;49.184;9.722;2023-04-24T08:12:41;0.63;;;0.17;;
8187;SDS011;4135;49.184;9.722;2023-04-24T08:15:10;3.45;;;0.47;;
8187;SDS011;4135;49.184;9.722;2023-04-24T08:17:40;1.23;;;0.30;;
8187;SDS011;4135;49.184;9.722;2023-04-24T08:20:10;1.30;;;0.30;;
8187;SDS011;4135;49.184;9.722;2023-04-24T08:22:42;2.88;;;0.38;;
8187;SDS011;4135;49.184;9.722;2023-04-24T08:25:12;0.45;;;0.20;;
8187;SDS011;4135;49.184;9.722;2023-04-24T08:27:42;2.80;;;0.45;;
8187;SDS011;4135;49.184;9.722;2023-04-24T08:30:12;1.42;;;0.30;;
8187;SDS011;4135;49.184;9.722;2023-04-24T08:32:42;1.08;;;0.25;;
8187;SDS011;4135;49.184;9.722;2023-04-24T08:35:11;1.05;;;0.47;;
8187;SDS011;4135;49.184;9.722;2023-04-24T08:37:41;0.52;;;0.30;;
8187;SDS011;4135;49.184;9.722;2023-04-24T08:40:14;0.90;;;0.30;;
8187;SDS011;4135;49.184;9.722;2023-04-24T08:42:44;0.57;;;0.20;;
8187;SDS011;4135;49.184;9.722;2023-04-24T08:45:14;0.22;;;0.22;;
8187;SDS011;4135;49.184;9.722;2023-04-24T08:47:44;0.40;;;0.30;;
8187;SDS011;4135;49.184;9.722;2023-04-24T08:50:14;0.57;;;0.20;;
8187;SDS011;4135;49.184;9.722;2023-04-24T08:52:44;0.47;;;0.25;;
8187;SDS011;4135;49.184;9.722;2023-04-24T08:55:14;0.30;;;0.20;;
8187;SDS011;4135;49.184;9.722;2023-04-24T08:57:50;1.15;;;0.50;;
8187;SDS011;4135;49.184;9.722;2023-04-24T09:00:21;0.90;;;0.30;;
8187;SDS011;4135;49.184;9.722;2023-04-24T09:02:52;0.55;;;0.20;;
8187;SDS011;4135;49.184;9.722;2023-04-24T09:05:22;2.30;;;0.28;;
8187;SDS011;4135;49.184;9.722;2023-04-24T09:07:55;1.20;;;0.25;;
8187;SDS011;4135;49.184;9.722;2023-04-24T09:10:25;0.75;;;0.20;;
8187;SDS011;4135;49.184;9.722;2023-04-24T09:12:55;0.63;;;0.30;;
8187;SDS011;4135;49.184;9.722;2023-04-24T09:15:27;0.80;;;0.20;;
8187;SDS011;4135;49.184;9.722;2023-04-24T09:17:58;1.27;;;0.20;;
8187;SDS011;4135;49.184;9.722;2023-04-24T09:20:28;0.77;;;0.30;;
8187;SDS011;4135;49.184;9.722;2023-04-24T09:22:57;2.67;;;0.32;;
8187;SDS011;4135;49.184;9.722;2023-04-24T09:25:31;0.63;;;0.22;;
8187;SDS011;4135;49.184;9.722;2023-04-24T09:28:03;0.38;;;0.35;;
8187;SDS011;4135;49.184;9.722;2023-04-24T09:30:33;1.38;;;0.50;;
8187;SDS011;4135;49.184;9.722;2023-04-24T09:33:12;1.13;;;0.40;;
8187;SDS011;4135;49.184;9.722;2023-04-24T09:35:49;2.13;;;0.35;;
8187;SDS011;4135;49.184;9.722;2023-04-24T09:38:20;1.85;;;0.35;;
8187;SDS011;4135;49.184;9.722;2023-04-24T09:41:04;0.45;;;0.40;;
8187;SDS011;4135;49.184;9.722;2023-04-24T09:43:35;1.85;;;0.40;;
8187;SDS011;4135;49.184;9.722;2023-04-24T09:46:06;0.98;;;0.43;;
8187;SDS011;4135;49.184;9.722;2023-04-24T09:48:37;2.28;;;0.30;;
8187;SDS011;4135;49.184;9.722;2023-04-24T09:51:07;3.45;;;0.30;;
8187;SDS011;4135;49.184;9.722;2023-04-24T09:53:39;0.45;;;0.22;;
8187;SDS011;4135;49.184;9.722;2023-04-24T09:56:09;3.60;;;0.45;;
8187;SDS011;4135;49.184;9.722;2023-04-24T09:58:41;3.17;;;0.70;;
8187;SDS011;4135;49.184;9.722;2023-04-24T10:01:10;1.80;;;0.30;;
8187;SDS011;4135;49.184;9.722;2023-04-24T10:03:41;0.85;;;0.30;;
8187;SDS011;4135;49.184;9.722;2023-04-24T10:06:11;5.30;;;0.57;;
8187;SDS011;4135;49.184;9.722;2023-04-24T10:08:41;1.23;;;0.40;;
8187;SDS011;4135;49.184;9.722;2023-04-24T10:11:12;1.67;;;0.43;;
8187;SDS011;4135;49.184;9.722;2023-04-24T10:13:42;1.45;;;0.55;;
8187;SDS011;4135;49.184;9.722;2023-04-24T10:16:12;1.45;;;0.40;;
8187;SDS011;4135;49.184;9.722;2023-04-24T10:18:42;1.23;;;0.25;;
8187;SDS011;4135;49.184;9.722;2023-04-24T10:21:12;1.67;;;0.47;;
8187;SDS011;4135;49.184;9.722;2023-04-24T10:23:43;0.68;;;0.20;;
8187;SDS011;4135;49.184;9.722;2023-04-24T10:26:15;1.15;;;0.40;;
8187;SDS011;4135;49.184;9.722;2023-04-24T10:28:47;2.53;;;0.50;;
8187;SDS011;4135;49.184;9.722;2023-04-24T10:31:16;1.10;;;0.47;;
8187;SDS011;4135;49.184;9.722;2023-04-24T10:33:47;1.25;;;0.35;;
8187;SDS011;4135;49.184;9.722;2023-04-24T10:36:18;0.85;;;0.35;;
8187;SDS011;4135;49.184;9.722;2023-04-24T10:38:52;4.35;;;0.55;;
8187;SDS011;4135;49.184;9.722;2023-04-24T10:41:25;8.50;;;1.27;;
8187;SDS011;4135;49.184;9.722;2023-04-24T10:44:11;4.10;;;1.00;;
8187;SDS011;4135;49.184;9.722;2023-04-24T10:46:43;1.15;;;0.60;;
8187;SDS011;4135;49.184;9.722;2023-04-24T10:49:14;2.55;;;0.98;;
8187;SDS011;4135;49.184;9.722;2023-04-24T10:54:33;4.80;;;0.77;;
8187;SDS011;4135;49.184;9.722;2023-04-24T10:59:49;12.65;;;4.35;;
8187;SDS011;4135;49.184;9.722;2023-04-24T11:02:23;13.18;;;4.78;;
8187;SDS011;4135;49.184;9.722;2023-04-24T11:05:06;14.02;;;4.47;;
8187;SDS011;4135;49.184;9.722;2023-04-24T11:10:47;10.00;;;3.92;;
8187;SDS011;4135;49.184;9.722;2023-04-24T11:16:38;10.50;;;3.85;;
8187;SDS011;4135;49.184;9.722;2023-04-24T11:22:03;5.93;;;3.13;;
8187;SDS011;4135;49.184;9.722;2023-04-24T11:27:16;4.75;;;2.30;;
8187;SDS011;4135;49.184;9.722;2023-04-24T11:32:25;5.72;;;1.55;;
8187;SDS011;4135;49.184;9.722;2023-04-24T11:37:38;4.47;;;1.77;;
8187;SDS011;4135;49.184;9.722;2023-04-24T11:40:10;3.38;;;1.48;;
8187;SDS011;4135;49.184;9.722;2023-04-24T11:42:41;2.67;;;1.13;;
8187;SDS011;4135;49.184;9.722;2023-04-24T11:45:13;5.22;;;1.50;;
8187;SDS011;4135;49.184;9.722;2023-04-24T11:47:44;7.20;;;1.50;;
8187;SDS011;4135;49.184;9.722;2023-04-24T11:50:15;2.70;;;1.50;;
8187;SDS011;4135;49.184;9.722;2023-04-24T11:52:46;3.67;;;1.35;;
8187;SDS011;4135;49.184;9.722;2023-04-24T11:57:47;3.13;;;1.20;;
8187;SDS011;4135;49.184;9.722;2023-04-24T12:00:36;4.55;;;1.20;;
8187;SDS011;4135;49.184;9.722;2023-04-24T12:03:07;4.35;;;1.10;;
8187;SDS011;4135;49.184;9.722;2023-04-24T12:05:38;4.22;;;1.33;;
8187;SDS011;4135;49.184;9.722;2023-04-24T12:08:09;2.20;;;1.02;;
8187;SDS011;4135;49.184;9.722;2023-04-24T12:10:38;3.45;;;1.38;;
8187;SDS011;4135;49.184;9.722;2023-04-24T12:13:09;1.65;;;1.13;;
8187;SDS011;4135;49.184;9.722;2023-04-24T12:15:40;2.05;;;0.80;;
8187;SDS011;4135;49.184;9.722;2023-04-24T12:18:11;4.63;;;1.35;;
8187;SDS011;4135;49.184;9.722;2023-04-24T12:20:41;1.98;;;0.88;;
8187;SDS011;4135;49.184;9.722;2023-04-24T12:23:11;2.38;;;1.00;;
8187;SDS011;4135;49.184;9.722;2023-04-24T12:25:41;4.72;;;1.20;;
8187;SDS011;4135;49.184;9.722;2023-04-24T12:28:11;2.67;;;1.20;;
8187;SDS011;4135;49.184;9.722;2023-04-24T12:30:43;3.88;;;1.08;;
8187;SDS011;4135;49.184;9.722;2023-04-24T12:33:17;2.95;;;0.85;;
8187;SDS011;4135;49.184;9.722;2023-04-24T12:35:53;1.73;;;0.90;;
8187;SDS011;4135;49.184;9.722;2023-04-24T12:38:24;2.88;;;1.35;;
8187;SDS011;4135;49.184;9.722;2023-04-24T12:41:01;2.22;;;1.10;;
8187;SDS011;4135;49.184;9.722;2023-04-24T12:43:35;2.47;;;1.38;;
8187;SDS011;4135;49.184;9.722;2023-04-24T12:46:05;3.83;;;1.55;;
8187;SDS011;4135;49.184;9.722;2023-04-24T12:48:34;3.63;;;0.90;;
8187;SDS011;4135;49.184;9.722;2023-04-24T12:51:04;2.33;;;1.25;;
8187;SDS011;4135;49.184;9.722;2023-04-24T12:53:34;2.03;;;1.38;;
8187;SDS011;4135;49.184;9.722;2023-04-24T12:56:03;7.45;;;1.00;;
8187;SDS011;4135;49.184;9.722;2023-04-24T12:58:33;5.18;;;1.00;;
8187;SDS011;4135;49.184;9.722;2023-04-24T13:01:03;3.33;;;1.13;;
8187;SDS011;4135;49.184;9.722;2023-04-24T13:03:32;0.95;;;0.70;;
8187;SDS011;4135;49.184;9.722;2023-04-24T13:06:02;2.53;;;1.33;;
8187;SDS011;4135;49.184;9.722;2023-04-24T13:08:31;3.53;;;1.00;;
8187;SDS011;4135;49.184;9.722;2023-04-24T13:11:01;1.85;;;1.02;;
8187;SDS011;4135;49.184;9.722;2023-04-24T13:13:30;1.27;;;0.90;;
8187;SDS011;4135;49.184;9.722;2023-04-24T13:16:00;3.08;;;1.30;;
8187;SDS011;4135;49.184;9.722;2023-04-24T13:18:29;3.97;;;1.10;;
8187;SDS011;4135;49.184;9.722;2023-04-24T13:20:59;4.40;;;1.23;;
8187;SDS011;4135;49.184;9.722;2023-04-24T13:23:28;1.48;;;0.70;;
8187;SDS011;4135;49.184;9.722;2023-04-24T13:25:58;1.95;;;0.77;;
8187;SDS011;4135;49.184;9.722;2023-04-24T13:28:27;1.38;;;0.80;;
8187;SDS011;4135;49.184;9.722;2023-04-24T13:30:58;2.15;;;0.85;;
8187;SDS011;4135;49.184;9.722;2023-04-24T13:33:28;2.35;;;1.20;;
8187;SDS011;4135;49.184;9.722;2023-04-24T13:35:58;1.58;;;1.00;;
8187;SDS011;4135;49.184;9.722;2023-04-24T13:38:27;1.33;;;0.80;;
8187;SDS011;4135;49.184;9.722;2023-04-24T13:40:57;2.50;;;1.02;;
8187;SDS011;4135;49.184;9.722;2023-04-24T13:43:27;5.35;;;1.27;;
8187;SDS011;4135;49.184;9.722;2023-04-24T13:45:56;4.68;;;0.98;;
8187;SDS011;4135;49.184;9.722;2023-04-24T13:48:28;1.88;;;0.98;;
8187;SDS011;4135;49.184;9.722;2023-04-24T13:50:58;3.70;;;1.35;;
8187;SDS011;4135;49.184;9.722;2023-04-24T13:53:28;2.92;;;1.08;;
8187;SDS011;4135;49.184;9.722;2023-04-24T13:55:57;4.40;;;1.10;;
8187;SDS011;4135;49.184;9.722;2023-04-24T13:58:27;2.25;;;0.88;;
8187;SDS011;4135;49.184;9.722;2023-04-24T14:00:56;1.65;;;0.80;;
8187;SDS011;4135;49.184;9.722;2023-04-24T14:03:26;2.22;;;0.98;;
8187;SDS011;4135;49.184;9.722;2023-04-24T14:05:55;3.78;;;0.80;;
8187;SDS011;4135;49.184;9.722;2023-04-24T14:08:25;1.50;;;0.77;;
8187;SDS011;4135;49.184;9.722;2023-04-24T14:10:54;1.90;;;0.88;;
8187;SDS011;4135;49.184;9.722;2023-04-24T14:13:24;1.60;;;0.80;;
8187;SDS011;4135;49.184;9.722;2023-04-24T14:15:54;1.50;;;0.68;;
8187;SDS011;4135;49.184;9.722;2023-04-24T14:18:23;1.90;;;0.88;;
8187;SDS011;4135;49.184;9.722;2023-04-24T14:20:53;1.45;;;1.00;;
8187;SDS011;4135;49.184;9.722;2023-04-24T14:23:22;1.02;;;0.85;;
8187;SDS011;4135;49.184;9.722;2023-04-24T14:25:52;1.38;;;0.75;;
8187;SDS011;4135;49.184;9.722;2023-04-24T14:28:22;3.00;;;1.02;;
8187;SDS011;4135;49.184;9.722;2023-04-24T14:30:51;2.05;;;1.02;;
8187;SDS011;4135;49.184;9.722;2023-04-24T14:33:21;2.78;;;0.70;;
8187;SDS011;4135;49.184;9.722;2023-04-24T14:35:50;1.88;;;1.05;;
8187;SDS011;4135;49.184;9.722;2023-04-24T14:38:20;5.22;;;1.27;;
8187;SDS011;4135;49.184;9.722;2023-04-24T14:40:51;2.33;;;0.77;;
8187;SDS011;4135;49.184;9.722;2023-04-24T14:43:20;2.15;;;1.02;;
8187;SDS011;4135;49.184;9.722;2023-04-24T14:45:50;1.38;;;0.77;;
8187;SDS011;4135;49.184;9.722;2023-04-24T14:48:19;1.50;;;0.70;;
8187;SDS011;4135;49.184;9.722;2023-04-24T14:50:49;2.38;;;0.40;;
8187;SDS011;4135;49.184;9.722;2023-04-24T14:53:18;5.57;;;1.13;;
8187;SDS011;4135;49.184;9.722;2023-04-24T14:55:48;4.22;;;0.82;;
8187;SDS011;4135;49.184;9.722;2023-04-24T14:58:17;2.92;;;1.27;;
8187;SDS011;4135;49.184;9.722;2023-04-24T15:00:47;4.75;;;1.35;;
8187;SDS011;4135;49.184;9.722;2023-04-24T15:03:20;6.70;;;1.80;;
8187;SDS011;4135;49.184;9.722;2023-04-24T15:05:50;2.97;;;1.52;;
8187;SDS011;4135;49.184;9.722;2023-04-24T15:08:20;12.20;;;1.60;;
8187;SDS011;4135;49.184;9.722;2023-04-24T15:10:50;2.95;;;1.20;;
8187;SDS011;4135;49.184;9.722;2023-04-24T15:13:19;5.47;;;1.52;;
8187;SDS011;4135;49.184;9.722;2023-04-24T15:15:49;5.63;;;1.75;;
8187;SDS011;4135;49.184;9.722;2023-04-24T15:18:19;4.82;;;1.20;;
8187;SDS011;4135;49.184;9.722;2023-04-24T15:20:49;8.00;;;1.95;;
8187;SDS011;4135;49.184;9.722;2023-04-24T15:23:18;5.43;;;1.42;;
8187;SDS011;4135;49.184;9.722;2023-04-24T15:25:48;3.72;;;1.23;;
8187;SDS011;4135;49.184;9.722;2023-04-24T15:28:18;5.50;;;1.58;;
8187;SDS011;4135;49.184;9.722;2023-04-24T15:30:47;7.78;;;1.83;;
8187;SDS011;4135;49.184;9.722;2023-04-24T15:33:17;7.55;;;2.20;;
8187;SDS011;4135;49.184;9.722;2023-04-24T15:35:46;5.03;;;1.63;;
8187;SDS011;4135;49.184;9.722;2023-04-24T15:38:17;5.28;;;2.50;;
8187;SDS011;4135;49.184;9.722;2023-04-24T15:40:47;6.32;;;2.17;;
8187;SDS011;4135;49.184;9.722;2023-04-24T15:43:17;7.88;;;2.33;;
8187;SDS011;4135;49.184;9.722;2023-04-24T15:45:50;4.20;;;1.90;;
8187;SDS011;4135;49.184;9.722;2023-04-24T15:48:20;4.72;;;2.10;;
8187;SDS011;4135;49.184;9.722;2023-04-24T15:50:49;6.60;;;1.70;;
8187;SDS011;4135;49.184;9.722;2023-04-24T15:53:19;3.83;;;1.60;;
8187;SDS011;4135;49.184;9.722;2023-04-24T15:55:51;7.47;;;1.88;;
8187;SDS011;4135;49.184;9.722;2023-04-24T15:58:21;8.05;;;2.05;;